createdAt,value
2023-03-27T00:01:15.435Z,99350.00
2023-03-27T00:03:43.342Z,99353.00
2023-03-27T00:06:17.134Z,99356.00
2023-03-27T00:08:46.646Z,99365.00
2023-03-27T00:11:14.992Z,99362.00
2023-03-27T00:13:50.211Z,99363.00
2023-03-27T00:16:19.654Z,99371.00
2023-03-27T00:18:47.805Z,99378.00
2023-03-27T00:21:15.584Z,99387.00
2023-03-27T00:23:43.744Z,99389.00
2023-03-27T00:26:14.732Z,99393.00
2023-03-27T00:28:42.616Z,99394.00
2023-03-27T00:31:11.816Z,99402.00
2023-03-27T00:33:39.994Z,99404.00
2023-03-27T00:36:08.611Z,99406.00
2023-03-27T00:38:37.136Z,99403.00
2023-03-27T00:41:05.125Z,99410.00
2023-03-27T00:43:36.995Z,99424.00
2023-03-27T00:46:09.089Z,99430.00
2023-03-27T00:48:37.327Z,99440.00
2023-03-27T00:51:05.693Z,99432.00
2023-03-27T00:53:33.665Z,99433.00
2023-03-27T00:56:02.851Z,99445.00
2023-03-27T00:58:32.616Z,99453.00
2023-03-27T01:01:00.528Z,99443.00
2023-03-27T01:03:30.847Z,99452.00
2023-03-27T01:06:00.565Z,99464.00
2023-03-27T01:08:29.042Z,99459.00
2023-03-27T01:11:17.494Z,99464.00
2023-03-27T01:13:51.489Z,99468.00
2023-03-27T01:16:19.445Z,99461.00
2023-03-27T01:18:56.863Z,99465.00
2023-03-27T01:21:29.517Z,99475.00
2023-03-27T01:24:07.231Z,99471.00
2023-03-27T01:26:43.115Z,99475.00
2023-03-27T01:29:21.623Z,99482.00
2023-03-27T01:32:13.778Z,99483.00
2023-03-27T01:34:47.959Z,99487.00
2023-03-27T01:37:35.750Z,99487.00
2023-03-27T01:40:09.575Z,99494.00
2023-03-27T01:42:59.276Z,99497.00
2023-03-27T01:45:47.421Z,99503.00
2023-03-27T01:48:50.751Z,99506.00
2023-03-27T01:51:21.156Z,99516.00
2023-03-27T01:54:08.391Z,99517.00
2023-03-27T01:56:38.101Z,99522.00
2023-03-27T01:59:11.596Z,99527.00
2023-03-27T02:01:40.363Z,99529.00
2023-03-27T02:04:10.308Z,99541.00
2023-03-27T02:06:39.140Z,99540.00
2023-03-27T02:09:09.127Z,99547.00
2023-03-27T02:11:55.143Z,99550.00
2023-03-27T02:14:29.817Z,99549.00
2023-03-27T02:16:59.989Z,99555.00
2023-03-27T02:19:35.453Z,99553.00
2023-03-27T02:22:04.139Z,99562.00
2023-03-27T02:24:46.446Z,99575.00
2023-03-27T02:27:19.358Z,99583.00
2023-03-27T02:29:53.552Z,99586.00
2023-03-27T02:32:37.698Z,99591.00
2023-03-27T02:35:12.932Z,99594.00
2023-03-27T02:38:00.257Z,99600.00
2023-03-27T02:40:48.151Z,99603.00
2023-03-27T02:43:56.366Z,99617.00
2023-03-27T02:50:13.472Z,99626.00
2023-03-27T02:52:48.707Z,99629.00
2023-03-27T02:55:36.351Z,99646.00
2023-03-27T02:58:16.951Z,99642.00
2023-03-27T03:00:56.206Z,99643.00
2023-03-27T03:03:35.775Z,99645.00
2023-03-27T03:06:14.735Z,99645.00
2023-03-27T03:08:46.810Z,99650.00
2023-03-27T03:11:17.705Z,99654.00
2023-03-27T03:13:45.432Z,99661.00
2023-03-27T03:16:13.662Z,99670.00
2023-03-27T03:18:41.460Z,99670.00
2023-03-27T03:21:09.771Z,99668.00
2023-03-27T03:23:37.709Z,99672.00
2023-03-27T03:26:06.891Z,99687.00
2023-03-27T03:29:00.415Z,99678.00
2023-03-27T03:31:43.584Z,99677.00
2023-03-27T03:34:13.077Z,99688.00
2023-03-27T03:36:42.351Z,99690.00
2023-03-27T03:39:11.566Z,99696.00
2023-03-27T03:41:39.414Z,99700.00
2023-03-27T03:44:07.282Z,99704.00
2023-03-27T03:46:35.220Z,99710.00
2023-03-27T03:49:05.203Z,99706.00
2023-03-27T03:51:33.749Z,99705.00
2023-03-27T03:54:02.229Z,99713.00
2023-03-27T03:56:31.301Z,99717.00
2023-03-27T03:58:59.228Z,99719.00
2023-03-27T04:05:10.130Z,99730.00
2023-03-27T04:07:40.510Z,99732.00
2023-03-27T04:10:27.060Z,99739.00
2023-03-27T04:12:56.368Z,99746.00
2023-03-27T04:15:28.284Z,99751.00
2023-03-27T04:18:16.826Z,99760.00
2023-03-27T04:20:50.404Z,99763.00
2023-03-27T04:23:20.294Z,99769.00
2023-03-27T04:25:48.958Z,99769.00
2023-03-27T04:28:23.156Z,99780.00
2023-03-27T04:31:06.655Z,99779.00
2023-03-27T04:33:53.466Z,99789.00
2023-03-27T04:36:21.171Z,99789.00
2023-03-27T04:38:56.719Z,99783.00
2023-03-27T04:41:27.712Z,99792.00
2023-03-27T04:43:56.624Z,99782.00
2023-03-27T04:46:24.986Z,99806.00
2023-03-27T04:49:00.258Z,99796.00
2023-03-27T04:51:42.172Z,99794.00
2023-03-27T04:54:11.509Z,99797.00
2023-03-27T04:56:45.873Z,99799.00
2023-03-27T04:59:13.944Z,99791.00
2023-03-27T05:01:42.186Z,99798.00
2023-03-27T05:04:28.628Z,99798.00
2023-03-27T05:07:13.754Z,99807.00
2023-03-27T05:09:42.525Z,99817.00
2023-03-27T05:12:11.033Z,99824.00
2023-03-27T05:14:49.747Z,99830.00
2023-03-27T05:17:41.205Z,99826.00
2023-03-27T05:20:15.065Z,99827.00
2023-03-27T05:22:43.733Z,99829.00
2023-03-27T05:25:28.945Z,99835.00
2023-03-27T05:27:58.290Z,99840.00
2023-03-27T05:30:30.958Z,99838.00
2023-03-27T05:33:28.204Z,99852.00
2023-03-27T05:35:58.623Z,99848.00
2023-03-27T05:38:27.708Z,99847.00
2023-03-27T05:41:16.461Z,99852.00
2023-03-27T05:43:49.531Z,99855.00
2023-03-27T05:46:21.413Z,99864.00
2023-03-27T05:48:59.956Z,99870.00
2023-03-27T05:51:27.964Z,99867.00
2023-03-27T05:53:56.537Z,99873.00
2023-03-27T05:56:36.088Z,99876.00
2023-03-27T05:59:05.265Z,99874.00
2023-03-27T06:01:36.344Z,99882.00
2023-03-27T06:04:04.620Z,99882.00
2023-03-27T06:06:50.824Z,99888.00
2023-03-27T06:09:19.253Z,99887.00
2023-03-27T06:12:08.715Z,99887.00
2023-03-27T06:14:39.303Z,99898.00
2023-03-27T06:17:40.510Z,99899.00
2023-03-27T06:20:12.982Z,99906.00
2023-03-27T06:22:46.973Z,99917.00
2023-03-27T06:25:16.267Z,99917.00
2023-03-27T06:27:44.663Z,99911.00
2023-03-27T06:30:13.714Z,99923.00
2023-03-27T06:32:59.718Z,99920.00
2023-03-27T06:35:37.138Z,99926.00
2023-03-27T06:38:18.551Z,99923.00
2023-03-27T06:40:46.658Z,99923.00
2023-03-27T06:43:18.467Z,99929.00
2023-03-27T06:45:53.666Z,99928.00
2023-03-27T06:48:41.123Z,99939.00
2023-03-27T06:51:09.337Z,99937.00
2023-03-27T06:53:38.422Z,99937.00
2023-03-27T06:56:06.947Z,99943.00
2023-03-27T06:58:54.813Z,99938.00
2023-03-27T07:01:27.948Z,99950.00
2023-03-27T07:04:13.704Z,99958.00
2023-03-27T07:06:51.946Z,99956.00
2023-03-27T07:09:19.699Z,99958.00
2023-03-27T07:11:58.906Z,99966.00
2023-03-27T07:14:26.548Z,99968.00
2023-03-27T07:16:54.516Z,99971.00
2023-03-27T07:19:24.282Z,99969.00
2023-03-27T07:22:01.552Z,99976.00
2023-03-27T07:24:32.826Z,99978.00
2023-03-27T07:27:01.149Z,99983.00
2023-03-27T07:29:34.218Z,99984.00
2023-03-27T07:32:06.317Z,99981.00
2023-03-27T07:34:41.501Z,99989.00
2023-03-27T07:37:12.311Z,99990.00
2023-03-27T07:39:50.559Z,99992.00
2023-03-27T07:42:19.879Z,99994.00
2023-03-27T07:45:09.905Z,100005.00
2023-03-27T07:47:38.748Z,100006.00
2023-03-27T07:50:10.251Z,100005.00
2023-03-27T07:52:40.817Z,100002.00
2023-03-27T07:55:09.204Z,100006.00
2023-03-27T07:57:59.294Z,100008.00
2023-03-27T08:00:31.454Z,100008.00
2023-03-27T08:03:10.116Z,100015.00
2023-03-27T08:05:54.725Z,100014.00
2023-03-27T08:08:25.337Z,100012.00
2023-03-27T08:11:02.628Z,100024.00
2023-03-27T08:13:36.237Z,100016.00
2023-03-27T08:16:09.955Z,100028.00
2023-03-27T08:18:38.174Z,100032.00
2023-03-27T08:21:08.649Z,100031.00
2023-03-27T08:23:37.830Z,100043.00
2023-03-27T08:26:21.292Z,100034.00
2023-03-27T08:29:10.242Z,100032.00
2023-03-27T08:31:42.715Z,100038.00
2023-03-27T08:34:10.696Z,100044.00
2023-03-27T08:36:58.923Z,100050.00
2023-03-27T08:39:37.077Z,100046.00
2023-03-27T08:42:06.628Z,100053.00
2023-03-27T08:44:36.052Z,100049.00
2023-03-27T08:47:21.597Z,100048.00
2023-03-27T08:49:57.654Z,100049.00
2023-03-27T08:52:48.973Z,100053.00
2023-03-27T08:55:28.916Z,100056.00
2023-03-27T08:58:12.191Z,100066.00
2023-03-27T09:00:40.699Z,100069.00
2023-03-27T09:03:22.686Z,100065.00
2023-03-27T09:05:53.949Z,100063.00
2023-03-27T09:08:54.807Z,100074.00
2023-03-27T09:11:30.071Z,100084.00
2023-03-27T09:14:01.763Z,100084.00
2023-03-27T09:16:31.621Z,100084.00
2023-03-27T09:19:14.008Z,100086.00
2023-03-27T09:21:46.697Z,100078.00
2023-03-27T09:24:51.192Z,100077.00
2023-03-27T09:27:54.189Z,100070.00
2023-03-27T09:30:49.006Z,100076.00
2023-03-27T09:33:27.552Z,100084.00
2023-03-27T09:36:01.007Z,100081.00
2023-03-27T09:38:30.364Z,100068.00
2023-03-27T09:41:03.227Z,100077.00
2023-03-27T09:43:41.974Z,100086.00
2023-03-27T09:46:10.545Z,100076.00
2023-03-27T09:48:38.539Z,100084.00
2023-03-27T09:51:32.275Z,100084.00
2023-03-27T09:54:00.521Z,100080.00
2023-03-27T09:56:31.867Z,100081.00
2023-03-27T09:58:59.714Z,100081.00
2023-03-27T10:01:29.576Z,100090.00
2023-03-27T10:04:24.311Z,100084.00
2023-03-27T10:07:02.175Z,100070.00
2023-03-27T10:10:09.345Z,100075.00
2023-03-27T10:12:57.674Z,100061.00
2023-03-27T10:15:39.861Z,100067.00
2023-03-27T10:18:23.367Z,100065.00
2023-03-27T10:20:55.316Z,100061.00
2023-03-27T10:23:27.829Z,100064.00
2023-03-27T10:26:00.328Z,100074.00
2023-03-27T10:28:42.904Z,100076.00
2023-03-27T10:31:30.231Z,100074.00
2023-03-27T10:34:34.861Z,100066.00
2023-03-27T10:37:27.255Z,100063.00
2023-03-27T10:40:07.649Z,100065.00
2023-03-27T10:42:39.445Z,100070.00
2023-03-27T10:45:08.294Z,100077.00
2023-03-27T10:47:36.285Z,100086.00
2023-03-27T10:50:08.097Z,100084.00
2023-03-27T10:53:01.265Z,100131.00
2023-03-27T10:55:45.210Z,100145.00
2023-03-27T10:58:21.352Z,100157.00
2023-03-27T11:01:11.412Z,100164.00
2023-03-27T11:04:13.297Z,100164.00
2023-03-27T11:06:48.459Z,100166.00
2023-03-27T11:09:30.239Z,100178.00
2023-03-27T11:12:08.048Z,100185.00
2023-03-27T11:15:07.680Z,100203.00
2023-03-27T11:17:40.239Z,100197.00
2023-03-27T11:20:28.617Z,100175.00
2023-03-27T11:23:39.330Z,100165.00
2023-03-27T11:26:30.856Z,100167.00
2023-03-27T11:29:14.212Z,100164.00
2023-03-27T11:31:54.683Z,100157.00
2023-03-27T11:34:48.565Z,100160.00
2023-03-27T11:37:43.824Z,100155.00
2023-03-27T11:40:13.588Z,100161.00
2023-03-27T11:42:42.840Z,100157.00
2023-03-27T11:45:16.066Z,100151.00
2023-03-27T11:47:57.679Z,100159.00
2023-03-27T11:50:31.282Z,100158.00
2023-03-27T11:53:05.802Z,100159.00
2023-03-27T11:56:01.317Z,100162.00
2023-03-27T11:58:39.969Z,100168.00
2023-03-27T12:01:14.460Z,100167.00
2023-03-27T12:04:11.302Z,100189.00
2023-03-27T12:07:05.256Z,100217.00
2023-03-27T12:09:42.194Z,100244.00
2023-03-27T12:12:46.276Z,100237.00
2023-03-27T12:15:34.685Z,100229.00
2023-03-27T12:18:02.582Z,100228.00
2023-03-27T12:20:48.692Z,100232.00
2023-03-27T12:23:29.254Z,100228.00
2023-03-27T12:26:31.260Z,100212.00
2023-03-27T12:29:28.134Z,100212.00
2023-03-27T12:32:33.341Z,100217.00
2023-03-27T12:35:07.082Z,100211.00
2023-03-27T12:37:43.851Z,100212.00
2023-03-27T12:40:27.542Z,100210.00
2023-03-27T12:43:27.621Z,100211.00
2023-03-27T12:46:24.502Z,100214.00
2023-03-27T12:49:16.593Z,100215.00
2023-03-27T12:51:58.351Z,100214.00
2023-03-27T12:55:04.127Z,100208.00
2023-03-27T12:57:50.390Z,100212.00
2023-03-27T13:00:29.047Z,100200.00
2023-03-27T13:03:07.187Z,100203.00
2023-03-27T13:05:35.785Z,100202.00
2023-03-27T13:08:07.714Z,100203.00
2023-03-27T13:11:09.864Z,100203.00
2023-03-27T13:13:53.312Z,100200.00
2023-03-27T13:16:29.125Z,100198.00
2023-03-27T13:19:18.992Z,100192.00
2023-03-27T13:22:18.372Z,100196.00
2023-03-27T13:24:46.201Z,100191.00
2023-03-27T13:27:17.330Z,100205.00
2023-03-27T13:29:48.840Z,100196.00
2023-03-27T13:32:29.429Z,100208.00
2023-03-27T13:35:21.029Z,100267.00
2023-03-27T13:37:49.033Z,100281.00
2023-03-27T13:40:20.969Z,100283.00
2023-03-27T13:43:01.570Z,100267.00
2023-03-27T13:45:37.461Z,100291.00
2023-03-27T13:48:39.879Z,100284.00
2023-03-27T13:51:23.272Z,100276.00
2023-03-27T13:53:54.592Z,100278.00
2023-03-27T13:57:04.903Z,100264.00
2023-03-27T13:59:58.116Z,100268.00
2023-03-27T14:02:46.762Z,100263.00
2023-03-27T14:05:22.918Z,100264.00
2023-03-27T14:08:29.903Z,100253.00
2023-03-27T14:11:24.442Z,100242.00
2023-03-27T14:14:04.356Z,100235.00
2023-03-27T14:16:42.372Z,100228.00
2023-03-27T14:19:19.963Z,100229.00
2023-03-27T14:21:49.985Z,100238.00
2023-03-27T14:24:18.599Z,100247.00
2023-03-27T14:26:50.704Z,100244.00
2023-03-27T14:29:22.340Z,100250.00
2023-03-27T14:31:52.134Z,100250.00
2023-03-27T14:34:33.320Z,100250.00
2023-03-27T14:37:32.538Z,100249.00
2023-03-27T14:40:30.739Z,100255.00
2023-03-27T14:43:02.228Z,100262.00
2023-03-27T14:45:32.615Z,100257.00
2023-03-27T14:48:03.079Z,100246.00
2023-03-27T14:50:41.362Z,100251.00
2023-03-27T14:53:11.847Z,100254.00
2023-03-27T14:56:00.504Z,100249.00
2023-03-27T14:59:08.205Z,100246.00
2023-03-27T15:01:50.138Z,100247.00
2023-03-27T15:04:18.506Z,100242.00
2023-03-27T15:06:50.161Z,100249.00
2023-03-27T15:09:43.887Z,100265.00
2023-03-27T15:12:41.209Z,100282.00
2023-03-27T15:15:34.676Z,100296.00
2023-03-27T15:18:05.297Z,100288.00
2023-03-27T15:20:34.630Z,100293.00
2023-03-27T15:23:12.384Z,100285.00
2023-03-27T15:25:43.143Z,100286.00
2023-03-27T15:28:19.333Z,100287.00
2023-03-27T15:30:51.690Z,100287.00
2023-03-27T15:33:25.030Z,100289.00
2023-03-27T15:35:54.788Z,100294.00
2023-03-27T15:38:27.524Z,100281.00
2023-03-27T15:41:13.812Z,100282.00
2023-03-27T15:43:41.816Z,100283.00
2023-03-27T15:46:15.021Z,100290.00
2023-03-27T15:48:49.435Z,100296.00
2023-03-27T15:51:20.262Z,100304.00
2023-03-27T15:53:48.703Z,100304.00
2023-03-27T15:56:17.025Z,100323.00
2023-03-27T15:58:46.881Z,100312.00
2023-03-27T16:01:19.852Z,100322.00
2023-03-27T16:03:50.773Z,100322.00
2023-03-27T16:06:31.033Z,100322.00
2023-03-27T16:08:58.787Z,100325.00
2023-03-27T16:11:40.789Z,100323.00
2023-03-27T16:14:27.070Z,100322.00
2023-03-27T16:17:15.836Z,100336.00
2023-03-27T16:19:53.764Z,100333.00
2023-03-27T16:22:31.627Z,100326.00
2023-03-27T16:25:00.062Z,100331.00
2023-03-27T16:27:29.040Z,100335.00
2023-03-27T16:29:57.401Z,100333.00
2023-03-27T16:32:25.792Z,100332.00
2023-03-27T16:34:53.542Z,100320.00
2023-03-27T16:37:22.411Z,100330.00
2023-03-27T16:39:50.508Z,100320.00
2023-03-27T16:42:19.647Z,100332.00
2023-03-27T16:44:47.419Z,100340.00
2023-03-27T16:47:15.640Z,100335.00
2023-03-27T16:49:43.582Z,100335.00
2023-03-27T16:52:11.431Z,100335.00
2023-03-27T16:54:39.350Z,100330.00
2023-03-27T16:57:07.096Z,100337.00
2023-03-27T16:59:35.134Z,100344.00
2023-03-27T17:02:03.337Z,100340.00
2023-03-27T17:04:31.126Z,100343.00
2023-03-27T17:06:59.260Z,100349.00
2023-03-27T17:09:28.080Z,100356.00
2023-03-27T17:11:55.876Z,100358.00
2023-03-27T17:14:23.575Z,100366.00
2023-03-27T17:16:51.944Z,100373.00
2023-03-27T17:19:19.707Z,100370.00
2023-03-27T17:21:47.428Z,100380.00
2023-03-27T17:24:15.165Z,100375.00
2023-03-27T17:26:42.888Z,100383.00
2023-03-27T17:29:11.549Z,100384.00
2023-03-27T17:31:39.856Z,100383.00
2023-03-27T17:34:08.047Z,100393.00
2023-03-27T17:36:44.973Z,100388.00
2023-03-27T17:39:18.516Z,100400.00
2023-03-27T17:41:46.414Z,100403.00
2023-03-27T17:44:14.610Z,100399.00
2023-03-27T17:46:42.562Z,100404.00
2023-03-27T17:49:10.991Z,100404.00
2023-03-27T17:51:38.737Z,100407.00
2023-03-27T17:54:06.939Z,100401.00
2023-03-27T17:56:34.838Z,100401.00
2023-03-27T17:59:02.886Z,100401.00
2023-03-27T18:01:30.756Z,100404.00
2023-03-27T18:04:00.850Z,100411.00
2023-03-27T18:06:29.335Z,100415.00
2023-03-27T18:08:57.063Z,100412.00
2023-03-27T18:11:25.431Z,100422.00
2023-03-27T18:13:53.532Z,100426.00
2023-03-27T18:16:23.177Z,100438.00
2023-03-27T18:18:52.860Z,100423.00
2023-03-27T18:21:20.993Z,100422.00
2023-03-27T18:23:48.623Z,100429.00
2023-03-27T18:26:16.905Z,100424.00
2023-03-27T18:28:44.669Z,100429.00
2023-03-27T18:31:13.164Z,100431.00
2023-03-27T18:33:40.995Z,100431.00
2023-03-27T18:36:11.034Z,100434.00
2023-03-27T18:38:40.697Z,100438.00
2023-03-27T18:41:09.037Z,100434.00
2023-03-27T18:43:37.142Z,100444.00
2023-03-27T18:46:06.192Z,100449.00
2023-03-27T18:48:34.265Z,100447.00
2023-03-27T18:51:03.394Z,100454.00
2023-03-27T18:53:31.618Z,100451.00
2023-03-27T18:55:59.541Z,100453.00
2023-03-27T18:58:28.377Z,100452.00
2023-03-27T19:00:56.975Z,100461.00
2023-03-27T19:03:26.969Z,100452.00
2023-03-27T19:05:54.614Z,100456.00
2023-03-27T19:08:22.546Z,100466.00
2023-03-27T19:10:52.911Z,100468.00
2023-03-27T19:13:43.301Z,100470.00
2023-03-27T19:16:31.347Z,100466.00
2023-03-27T19:19:17.398Z,100474.00
2023-03-27T19:21:50.998Z,100474.00
2023-03-27T19:24:41.845Z,100485.00
2023-03-27T19:27:24.105Z,100474.00
2023-03-27T19:29:53.077Z,100472.00
2023-03-27T19:32:21.068Z,100473.00
2023-03-27T19:34:49.026Z,100469.00
2023-03-27T19:37:17.275Z,100476.00
2023-03-27T19:39:45.024Z,100486.00
2023-03-27T19:42:13.027Z,100479.00
2023-03-27T19:44:41.947Z,100477.00
2023-03-27T19:47:10.250Z,100478.00
2023-03-27T19:49:37.906Z,100489.00
2023-03-27T19:52:31.830Z,100490.00
2023-03-27T19:54:59.645Z,100485.00
2023-03-27T19:57:27.462Z,100479.00
2023-03-27T19:59:55.508Z,100489.00
2023-03-27T20:02:23.305Z,100481.00
2023-03-27T20:04:52.229Z,100485.00
2023-03-27T20:07:20.033Z,100482.00
2023-03-27T20:09:48.083Z,100471.00
2023-03-27T20:12:22.790Z,100481.00
2023-03-27T20:15:02.338Z,100489.00
2023-03-27T20:17:42.418Z,100475.00
2023-03-27T20:20:11.218Z,100484.00
2023-03-27T20:22:54.085Z,100476.00
2023-03-27T20:25:24.706Z,100479.00
2023-03-27T20:27:52.617Z,100478.00
2023-03-27T20:30:20.383Z,100480.00
2023-03-27T20:32:51.350Z,100484.00
2023-03-27T20:35:24.293Z,100484.00
2023-03-27T20:37:58.130Z,100494.00
2023-03-27T20:40:32.910Z,100481.00
2023-03-27T20:43:06.294Z,100480.00
2023-03-27T20:45:34.426Z,100477.00
2023-03-27T20:48:04.985Z,100478.00
2023-03-27T20:50:35.646Z,100469.00
2023-03-27T20:53:04.967Z,100476.00
2023-03-27T20:55:37.529Z,100464.00
2023-03-27T20:58:09.250Z,100473.00
2023-03-27T21:00:37.318Z,100482.00
2023-03-27T21:03:05.602Z,100480.00
2023-03-27T21:05:34.877Z,100477.00
2023-03-27T21:08:03.803Z,100478.00
2023-03-27T21:10:31.753Z,100480.00
2023-03-27T21:13:00.230Z,100482.00
2023-03-27T21:15:28.157Z,100476.00
2023-03-27T21:17:56.494Z,100470.00
2023-03-27T21:20:26.994Z,100470.00
2023-03-27T21:22:55.111Z,100467.00
2023-03-27T21:25:23.157Z,100465.00
2023-03-27T21:27:57.894Z,100468.00
2023-03-27T21:30:47.202Z,100460.00
2023-03-27T21:33:16.433Z,100467.00
2023-03-27T21:35:47.706Z,100471.00
2023-03-27T21:38:16.342Z,100474.00
2023-03-27T21:40:45.577Z,100470.00
2023-03-27T21:43:13.441Z,100473.00
2023-03-27T21:45:41.682Z,100476.00
2023-03-27T21:48:10.916Z,100467.00
2023-03-27T21:50:39.017Z,100471.00
2023-03-27T21:53:06.809Z,100462.00
2023-03-27T21:55:35.356Z,100469.00
2023-03-27T21:58:03.237Z,100476.00
2023-03-27T22:00:31.557Z,100468.00
2023-03-27T22:02:59.682Z,100465.00
2023-03-27T22:05:27.658Z,100474.00
2023-03-27T22:07:55.844Z,100478.00
2023-03-27T22:10:24.171Z,100476.00
2023-03-27T22:12:52.200Z,100480.00
2023-03-27T22:15:21.025Z,100481.00
2023-03-27T22:17:49.608Z,100474.00
2023-03-27T22:20:17.660Z,100477.00
2023-03-27T22:22:45.489Z,100483.00
2023-03-27T22:25:13.279Z,100480.00
2023-03-27T22:27:41.140Z,100487.00
2023-03-27T22:30:09.012Z,100481.00
2023-03-27T22:32:37.001Z,100472.00
2023-03-27T22:35:04.926Z,100480.00
2023-03-27T22:37:35.544Z,100484.00
2023-03-27T22:40:03.616Z,100493.00
2023-03-27T22:42:31.638Z,100498.00
2023-03-27T22:44:59.471Z,100489.00
2023-03-27T22:47:27.630Z,100499.00
2023-03-27T22:49:55.679Z,100506.00
2023-03-27T22:52:23.413Z,100494.00
2023-03-27T22:54:51.365Z,100504.00
2023-03-27T22:57:18.993Z,100502.00
2023-03-27T22:59:47.192Z,100518.00
2023-03-27T23:02:14.885Z,100526.00
2023-03-27T23:04:42.619Z,100529.00
2023-03-27T23:07:10.978Z,100527.00
2023-03-27T23:09:39.147Z,100525.00
2023-03-27T23:12:07.134Z,100532.00
2023-03-27T23:14:35.546Z,100529.00
2023-03-27T23:17:03.656Z,100539.00
2023-03-27T23:19:31.897Z,100539.00
2023-03-27T23:21:59.852Z,100535.00
2023-03-27T23:24:27.674Z,100541.00
2023-03-27T23:26:55.585Z,100543.00
2023-03-27T23:29:23.706Z,100542.00
2023-03-27T23:31:51.807Z,100552.00
2023-03-27T23:34:19.595Z,100544.00
2023-03-27T23:36:47.720Z,100544.00
2023-03-27T23:39:15.748Z,100545.00
2023-03-27T23:41:43.753Z,100546.00
2023-03-27T23:44:11.613Z,100545.00
2023-03-27T23:46:39.366Z,100543.00
2023-03-27T23:49:07.030Z,100543.00
2023-03-27T23:51:34.700Z,100556.00
2023-03-27T23:54:02.447Z,100560.00
2023-03-27T23:56:30.366Z,100561.00
2023-03-27T23:58:58.297Z,100562.00
